createdAt,value
2023-01-29T00:02:29.631Z,24.00
2023-01-29T00:07:49.406Z,28.00
2023-01-29T00:10:21.271Z,24.70
2023-01-29T00:12:53.015Z,26.80
2023-01-29T00:15:24.705Z,25.90
2023-01-29T00:20:26.485Z,21.30
2023-01-29T00:25:28.513Z,18.80
2023-01-29T00:30:30.738Z,18.00
2023-01-29T00:33:02.508Z,17.40
2023-01-29T00:38:04.596Z,20.50
2023-01-29T00:43:44.628Z,19.50
2023-01-29T00:46:16.400Z,19.60
2023-01-29T00:48:48.136Z,19.60
2023-01-29T00:53:49.968Z,19.70
2023-01-29T00:58:52.824Z,21.60
2023-01-29T01:01:39.173Z,21.20
2023-01-29T01:04:12.460Z,20.90
2023-01-29T01:06:44.924Z,20.90
2023-01-29T01:09:34.293Z,21.50
2023-01-29T01:12:06.951Z,20.40
2023-01-29T01:14:38.612Z,20.70
2023-01-29T01:19:40.484Z,19.20
2023-01-29T01:24:42.769Z,19.10
2023-01-29T01:29:44.689Z,17.60
2023-01-29T01:34:48.147Z,19.00
2023-01-29T01:39:50.529Z,20.30
2023-01-29T01:42:22.143Z,17.80
2023-01-29T01:47:35.882Z,16.10
2023-01-29T01:50:14.965Z,17.20
2023-01-29T01:52:52.740Z,19.30
2023-01-29T01:55:28.617Z,14.80
2023-01-29T01:58:07.493Z,14.20
2023-01-29T02:00:39.866Z,14.90
2023-01-29T02:03:30.978Z,13.30
2023-01-29T02:06:20.617Z,13.90
2023-01-29T02:09:14.104Z,13.60
2023-01-29T02:11:46.145Z,16.00
2023-01-29T02:14:18.419Z,13.10
2023-01-29T02:16:50.667Z,14.80
2023-01-29T02:22:25.742Z,14.00
2023-01-29T02:25:19.955Z,14.90
2023-01-29T02:28:15.004Z,14.30
2023-01-29T02:30:54.292Z,13.30
2023-01-29T02:33:38.499Z,15.60
2023-01-29T02:36:20.564Z,13.70
2023-01-29T02:39:01.456Z,15.40
2023-01-29T02:41:39.741Z,16.00
2023-01-29T02:44:23.148Z,14.00
2023-01-29T02:47:02.224Z,14.50
2023-01-29T02:49:40.350Z,15.80
2023-01-29T02:52:17.549Z,14.80
2023-01-29T02:54:56.406Z,15.00
2023-01-29T02:57:30.632Z,15.60
2023-01-29T03:00:09.084Z,14.70
2023-01-29T03:02:48.645Z,13.60
2023-01-29T03:05:27.115Z,14.00
2023-01-29T03:08:03.896Z,16.20
2023-01-29T03:10:42.175Z,12.60
2023-01-29T03:13:19.518Z,14.20
2023-01-29T03:16:01.331Z,13.40
2023-01-29T03:19:06.619Z,13.20
2023-01-29T03:22:00.029Z,13.80
2023-01-29T03:25:00.364Z,15.50
2023-01-29T03:27:55.869Z,12.40
2023-01-29T03:30:50.057Z,13.50
2023-01-29T03:33:44.924Z,14.60
2023-01-29T03:36:22.454Z,15.10
2023-01-29T03:38:54.522Z,13.10
2023-01-29T03:41:34.175Z,14.10
2023-01-29T03:44:15.709Z,12.30
2023-01-29T03:46:57.110Z,14.30
2023-01-29T03:49:39.144Z,12.20
2023-01-29T03:52:20.721Z,14.00
2023-01-29T03:55:00.795Z,13.90
2023-01-29T03:57:39.818Z,12.80
2023-01-29T04:00:18.510Z,13.40
2023-01-29T04:03:15.625Z,12.30
2023-01-29T04:05:52.362Z,10.30
2023-01-29T04:08:31.500Z,10.50
2023-01-29T04:11:14.562Z,12.70
2023-01-29T04:13:48.796Z,11.20
2023-01-29T04:16:26.361Z,14.20
2023-01-29T04:19:07.778Z,15.40
2023-01-29T04:21:43.045Z,13.20
2023-01-29T04:24:15.965Z,11.70
2023-01-29T04:27:01.371Z,11.20
2023-01-29T04:29:48.255Z,10.20
2023-01-29T04:32:27.071Z,10.00
2023-01-29T04:35:11.202Z,11.70
2023-01-29T04:37:51.417Z,13.20
2023-01-29T04:40:34.699Z,12.10
2023-01-29T04:43:10.725Z,10.80
2023-01-29T04:45:54.642Z,11.40
2023-01-29T04:48:31.542Z,8.90
2023-01-29T04:51:10.507Z,9.50
2023-01-29T04:53:49.589Z,8.80
2023-01-29T04:56:26.599Z,8.70
2023-01-29T04:59:05.049Z,8.20
2023-01-29T05:01:39.336Z,9.50
2023-01-29T05:04:15.487Z,8.50
2023-01-29T05:06:47.782Z,9.10
2023-01-29T05:09:20.873Z,9.20
2023-01-29T05:11:53.245Z,10.90
2023-01-29T05:14:30.457Z,11.00
2023-01-29T05:17:06.005Z,10.80
2023-01-29T05:19:37.716Z,11.20
2023-01-29T05:24:42.608Z,11.00
2023-01-29T05:30:07.195Z,9.60
2023-01-29T05:32:39.730Z,10.30
2023-01-29T05:35:11.762Z,9.70
2023-01-29T05:37:43.406Z,9.20
2023-01-29T05:42:47.591Z,9.10
2023-01-29T05:47:49.669Z,9.00
2023-01-29T05:50:21.512Z,8.70
2023-01-29T05:52:58.687Z,8.90
2023-01-29T05:55:30.773Z,8.30
2023-01-29T05:58:04.758Z,7.80
2023-01-29T06:00:37.443Z,8.30
2023-01-29T06:05:41.475Z,8.90
2023-01-29T06:08:13.290Z,8.50
2023-01-29T06:10:44.981Z,8.90
2023-01-29T06:15:46.800Z,8.10
2023-01-29T06:20:48.632Z,8.80
2023-01-29T06:25:50.472Z,8.60
2023-01-29T06:30:52.326Z,9.20
2023-01-29T06:35:58.622Z,9.70
2023-01-29T06:38:30.934Z,10.90
2023-01-29T06:41:08.772Z,10.50
2023-01-29T06:43:41.036Z,11.10
2023-01-29T06:46:12.927Z,11.20
2023-01-29T06:48:44.588Z,9.50
2023-01-29T06:53:46.907Z,10.20
2023-01-29T06:56:18.694Z,11.30
2023-01-29T07:01:34.651Z,12.10
2023-01-29T07:04:07.401Z,13.40
2023-01-29T07:06:39.064Z,13.40
2023-01-29T07:11:40.748Z,12.00
2023-01-29T07:16:42.510Z,16.70
2023-01-29T07:21:44.317Z,14.10
2023-01-29T07:26:46.284Z,14.10
2023-01-29T07:31:48.180Z,13.80
2023-01-29T07:34:20.029Z,16.60
2023-01-29T07:36:53.684Z,17.60
2023-01-29T07:39:25.441Z,16.50
2023-01-29T07:41:57.092Z,17.80
2023-01-29T07:44:28.879Z,19.40
2023-01-29T07:49:32.614Z,17.80
2023-01-29T07:52:04.394Z,17.30
2023-01-29T07:54:36.079Z,18.10
2023-01-29T07:59:37.943Z,17.70
2023-01-29T08:04:41.393Z,20.00
2023-01-29T08:09:43.184Z,22.30
2023-01-29T08:14:45.735Z,19.40
2023-01-29T08:17:17.586Z,20.20
2023-01-29T08:19:49.218Z,19.30
2023-01-29T08:24:54.359Z,17.10
2023-01-29T08:27:31.839Z,19.00
2023-01-29T08:32:34.038Z,98.60
2023-01-29T08:35:06.569Z,23.70
2023-01-29T08:37:38.203Z,23.20
2023-01-29T08:42:44.982Z,19.90
2023-01-29T08:47:50.878Z,18.40
2023-01-29T08:50:22.567Z,45.70
2023-01-29T08:55:24.857Z,17.20
2023-01-29T08:57:57.326Z,14.00
2023-01-29T09:00:29.024Z,16.60
2023-01-29T09:05:32.564Z,15.30
2023-01-29T09:10:35.075Z,12.70
2023-01-29T09:13:09.985Z,146.10
2023-01-29T09:15:42.171Z,14.90
2023-01-29T09:18:14.692Z,10.70
2023-01-29T09:20:46.791Z,11.80
2023-01-29T09:23:19.130Z,12.10
2023-01-29T09:25:51.809Z,10.60
2023-01-29T09:28:25.090Z,11.90
2023-01-29T09:30:57.653Z,10.40
2023-01-29T09:33:31.061Z,12.10
2023-01-29T09:36:06.116Z,11.40
2023-01-29T09:38:38.475Z,11.00
2023-01-29T09:41:24.901Z,9.50
2023-01-29T09:44:01.430Z,11.80
2023-01-29T09:46:45.923Z,11.70
2023-01-29T09:49:25.740Z,10.20
2023-01-29T09:52:08.407Z,11.70
2023-01-29T09:54:52.339Z,10.50
2023-01-29T09:57:30.226Z,9.90
2023-01-29T10:00:02.184Z,11.10
2023-01-29T10:02:56.298Z,11.70
2023-01-29T10:05:46.349Z,11.10
2023-01-29T10:08:40.551Z,10.90
2023-01-29T10:11:26.294Z,9.30
2023-01-29T10:14:17.991Z,19.00
2023-01-29T10:17:05.941Z,11.20
2023-01-29T10:19:57.164Z,12.90
2023-01-29T10:22:46.203Z,12.40
2023-01-29T10:25:20.853Z,11.00
2023-01-29T10:27:54.409Z,10.40
2023-01-29T10:30:33.794Z,10.20
2023-01-29T10:33:13.184Z,10.90
2023-01-29T10:35:50.058Z,11.90
2023-01-29T10:38:40.047Z,10.00
2023-01-29T10:41:31.697Z,11.20
2023-01-29T10:44:18.445Z,12.50
2023-01-29T10:47:03.689Z,10.70
2023-01-29T10:49:51.657Z,10.70
2023-01-29T10:52:36.330Z,11.50
2023-01-29T10:55:22.167Z,11.40
2023-01-29T10:58:07.417Z,12.70
2023-01-29T11:00:41.534Z,12.40
2023-01-29T11:06:20.018Z,13.80
2023-01-29T11:08:57.112Z,12.00
2023-01-29T11:11:37.026Z,11.90
2023-01-29T11:14:14.936Z,13.50
2023-01-29T11:16:49.031Z,11.70
2023-01-29T11:19:36.876Z,12.20
2023-01-29T11:22:16.229Z,13.80
2023-01-29T11:24:48.697Z,12.10
2023-01-29T11:27:26.503Z,14.20
2023-01-29T11:29:58.838Z,12.10
2023-01-29T11:32:35.032Z,12.60
2023-01-29T11:35:21.620Z,13.00
2023-01-29T11:37:53.535Z,12.80
2023-01-29T11:40:41.302Z,13.60
2023-01-29T11:43:32.539Z,11.70
2023-01-29T11:46:07.217Z,10.80
2023-01-29T11:48:47.953Z,11.80
2023-01-29T11:51:28.180Z,12.60
2023-01-29T11:54:02.937Z,13.90
2023-01-29T11:56:41.045Z,12.60
2023-01-29T11:59:26.176Z,12.90
2023-01-29T12:02:04.766Z,12.80
2023-01-29T12:04:40.311Z,12.80
2023-01-29T12:07:17.540Z,13.20
2023-01-29T12:09:55.452Z,15.20
2023-01-29T12:12:42.362Z,19.10
2023-01-29T12:15:24.400Z,14.90
2023-01-29T12:18:06.613Z,13.60
2023-01-29T12:20:42.576Z,13.90
2023-01-29T12:23:32.234Z,14.50
2023-01-29T12:26:10.588Z,14.10
2023-01-29T12:28:50.751Z,18.40
2023-01-29T12:31:37.736Z,14.70
2023-01-29T12:34:21.376Z,15.50
2023-01-29T12:36:57.651Z,15.90
2023-01-29T12:39:29.857Z,15.00
2023-01-29T12:42:05.607Z,13.20
2023-01-29T12:44:42.610Z,17.30
2023-01-29T12:47:20.722Z,14.70
2023-01-29T12:49:56.992Z,14.40
2023-01-29T12:52:40.849Z,13.20
2023-01-29T12:55:19.300Z,14.90
2023-01-29T12:57:55.948Z,15.50
2023-01-29T13:00:30.508Z,17.80
2023-01-29T13:03:09.249Z,16.20
2023-01-29T13:05:47.363Z,14.60
2023-01-29T13:08:23.159Z,14.10
2023-01-29T13:10:58.935Z,14.80
2023-01-29T13:13:37.323Z,14.30
2023-01-29T13:16:22.230Z,12.70
2023-01-29T13:18:59.139Z,13.10
2023-01-29T13:21:36.817Z,13.90
2023-01-29T13:24:15.524Z,14.10
2023-01-29T13:26:53.792Z,14.00
2023-01-29T13:29:32.073Z,13.50
2023-01-29T13:32:06.473Z,23.40
2023-01-29T13:34:46.130Z,21.10
2023-01-29T13:37:28.092Z,13.80
2023-01-29T13:40:02.446Z,15.00
2023-01-29T13:42:45.961Z,13.70
2023-01-29T13:45:24.507Z,17.00
2023-01-29T13:48:09.354Z,17.00
2023-01-29T13:50:43.990Z,15.00
2023-01-29T13:53:25.392Z,15.20
2023-01-29T13:56:17.178Z,15.60
2023-01-29T13:58:57.273Z,16.80
2023-01-29T14:02:04.500Z,14.80
2023-01-29T14:04:36.289Z,16.50
2023-01-29T14:10:16.619Z,17.50
2023-01-29T14:12:55.883Z,17.30
2023-01-29T14:15:33.539Z,19.30
2023-01-29T14:18:20.680Z,18.60
2023-01-29T14:21:04.695Z,19.80
2023-01-29T14:23:46.681Z,21.50
2023-01-29T14:26:45.496Z,20.60
2023-01-29T14:29:34.173Z,20.00
2023-01-29T14:32:19.271Z,20.70
2023-01-29T14:34:56.652Z,21.60
2023-01-29T14:37:34.301Z,21.80
2023-01-29T14:40:21.757Z,21.40
2023-01-29T14:43:03.219Z,22.70
2023-01-29T14:45:36.979Z,23.80
2023-01-29T14:48:37.778Z,23.60
2023-01-29T14:51:12.150Z,24.40
2023-01-29T14:53:59.531Z,24.60
2023-01-29T14:56:36.215Z,24.90
2023-01-29T14:59:17.984Z,24.10
2023-01-29T15:04:27.509Z,25.10
2023-01-29T15:07:05.289Z,24.40
2023-01-29T15:09:43.592Z,24.90
2023-01-29T15:12:25.619Z,26.20
2023-01-29T15:15:07.075Z,24.80
2023-01-29T15:17:49.898Z,26.10
2023-01-29T15:20:32.337Z,28.40
2023-01-29T15:23:06.127Z,27.00
2023-01-29T15:25:48.950Z,27.50
2023-01-29T15:28:21.024Z,29.00
2023-01-29T15:30:56.291Z,29.20
2023-01-29T15:33:29.307Z,30.90
2023-01-29T15:36:09.507Z,29.50
2023-01-29T15:38:41.419Z,29.70
2023-01-29T15:43:51.823Z,31.60
2023-01-29T15:46:28.808Z,30.30
2023-01-29T15:49:07.198Z,34.20
2023-01-29T15:51:39.851Z,35.30
2023-01-29T15:54:15.976Z,34.20
2023-01-29T15:56:52.161Z,35.50
2023-01-29T15:59:26.909Z,36.80
2023-01-29T16:01:58.719Z,44.20
2023-01-29T16:04:32.107Z,36.80
2023-01-29T16:07:04.309Z,39.20
2023-01-29T16:09:36.165Z,37.00
2023-01-29T16:12:09.176Z,35.40
2023-01-29T16:14:42.394Z,37.90
2023-01-29T16:17:26.091Z,38.30
2023-01-29T16:20:02.186Z,38.10
2023-01-29T16:22:36.338Z,39.10
2023-01-29T16:25:13.712Z,37.70
2023-01-29T16:27:46.141Z,37.60
2023-01-29T16:30:19.905Z,37.50
2023-01-29T16:32:51.987Z,49.10
2023-01-29T16:35:23.786Z,34.00
2023-01-29T16:38:02.091Z,36.80
2023-01-29T16:40:35.639Z,37.40
2023-01-29T16:43:47.565Z,37.00
2023-01-29T16:46:37.114Z,36.80
2023-01-29T16:49:35.931Z,35.20
2023-01-29T16:52:20.571Z,34.40
2023-01-29T16:54:52.497Z,32.70
2023-01-29T16:57:26.637Z,33.70
2023-01-29T17:00:01.569Z,34.20
2023-01-29T17:02:38.041Z,35.10
2023-01-29T17:05:21.487Z,33.10
2023-01-29T17:07:56.451Z,32.00
2023-01-29T17:10:30.148Z,31.60
2023-01-29T17:13:06.360Z,30.80
2023-01-29T17:15:47.068Z,31.40
2023-01-29T17:18:22.007Z,34.80
2023-01-29T17:20:54.552Z,31.00
2023-01-29T17:23:26.482Z,31.50
2023-01-29T17:25:58.506Z,31.70
2023-01-29T17:28:39.484Z,52.00
2023-01-29T17:31:12.032Z,33.00
2023-01-29T17:33:45.246Z,32.00
2023-01-29T17:36:19.444Z,30.90
2023-01-29T17:38:51.319Z,32.20
2023-01-29T17:41:28.327Z,32.20
2023-01-29T17:44:00.755Z,30.10
2023-01-29T17:46:33.386Z,31.60
2023-01-29T17:49:07.435Z,30.10
2023-01-29T17:51:39.523Z,30.40
2023-01-29T17:54:11.547Z,31.60
2023-01-29T17:56:44.026Z,32.10
2023-01-29T17:59:18.490Z,30.20
2023-01-29T18:01:51.212Z,30.00
2023-01-29T18:04:23.333Z,30.90
2023-01-29T18:06:56.878Z,32.80
2023-01-29T18:09:29.149Z,36.40
2023-01-29T18:12:04.096Z,36.40
2023-01-29T18:14:36.628Z,35.50
2023-01-29T18:17:08.639Z,37.10
2023-01-29T18:19:40.721Z,37.20
2023-01-29T18:22:14.140Z,36.60
2023-01-29T18:24:49.086Z,36.20
2023-01-29T18:27:21.118Z,39.30
2023-01-29T18:29:53.782Z,38.60
2023-01-29T18:32:26.261Z,38.40
2023-01-29T18:34:58.621Z,43.60
2023-01-29T18:37:31.060Z,40.30
2023-01-29T18:40:03.703Z,39.10
2023-01-29T18:42:36.431Z,60.50
2023-01-29T18:45:13.261Z,43.90
2023-01-29T18:47:46.190Z,40.50
2023-01-29T18:50:23.537Z,42.50
2023-01-29T18:52:56.795Z,42.40
2023-01-29T18:55:29.030Z,45.20
2023-01-29T18:58:26.938Z,40.90
2023-01-29T19:00:55.820Z,40.00
2023-01-29T19:03:27.902Z,41.70
2023-01-29T19:06:07.315Z,41.30
2023-01-29T19:08:40.519Z,41.90
2023-01-29T19:11:15.185Z,43.00
2023-01-29T19:13:47.950Z,64.80
2023-01-29T19:16:20.303Z,41.90
2023-01-29T19:18:56.407Z,39.00
2023-01-29T19:21:30.257Z,40.50
2023-01-29T19:24:02.364Z,42.70
2023-01-29T19:26:34.599Z,40.50
2023-01-29T19:29:09.296Z,40.30
2023-01-29T19:31:41.526Z,42.10
2023-01-29T19:34:13.715Z,40.10
2023-01-29T19:36:45.964Z,40.50
2023-01-29T19:39:18.196Z,39.70
2023-01-29T19:41:50.109Z,39.30
2023-01-29T19:44:22.693Z,41.20
2023-01-29T19:46:55.221Z,38.10
2023-01-29T19:49:29.831Z,40.10
2023-01-29T19:52:02.469Z,41.00
2023-01-29T19:54:35.119Z,40.80
2023-01-29T19:57:10.701Z,38.20
2023-01-29T19:59:45.809Z,42.50
2023-01-29T20:02:18.078Z,40.30
2023-01-29T20:04:50.412Z,41.70
2023-01-29T20:07:22.846Z,42.60
2023-01-29T20:09:56.068Z,43.50
2023-01-29T20:12:28.069Z,40.90
2023-01-29T20:14:59.975Z,44.20
2023-01-29T20:17:32.091Z,41.80
2023-01-29T20:20:03.936Z,44.10
2023-01-29T20:22:35.873Z,43.90
2023-01-29T20:25:10.288Z,43.90
2023-01-29T20:27:42.211Z,42.40
2023-01-29T20:30:15.503Z,43.80
2023-01-29T20:32:47.590Z,45.60
2023-01-29T20:35:20.130Z,44.80
2023-01-29T20:37:51.866Z,47.60
2023-01-29T20:42:53.868Z,48.10
2023-01-29T20:45:25.837Z,48.60
2023-01-29T20:47:58.428Z,47.90
2023-01-29T20:50:30.274Z,54.60
2023-01-29T20:53:02.614Z,55.50
2023-01-29T20:55:34.974Z,54.40
2023-01-29T20:58:07.137Z,60.40
2023-01-29T21:00:44.593Z,53.50
2023-01-29T21:03:16.349Z,51.70
2023-01-29T21:08:18.380Z,56.80
2023-01-29T21:10:52.954Z,53.40
2023-01-29T21:13:24.765Z,54.80
2023-01-29T21:15:56.530Z,51.90
2023-01-29T21:20:58.920Z,52.50
2023-01-29T21:23:30.869Z,57.30
2023-01-29T21:26:06.011Z,52.00
2023-01-29T21:28:37.822Z,52.30
2023-01-29T21:31:11.360Z,130.80
2023-01-29T21:33:43.143Z,54.90
2023-01-29T21:36:14.990Z,50.00
2023-01-29T21:38:46.760Z,50.50
2023-01-29T21:41:18.642Z,47.70
2023-01-29T21:46:20.794Z,49.10
2023-01-29T21:48:53.907Z,48.90
2023-01-29T21:51:25.681Z,49.40
2023-01-29T21:53:57.332Z,47.10
2023-01-29T21:59:01.015Z,48.30
2023-01-29T22:01:37.337Z,51.30
2023-01-29T22:04:11.543Z,54.20
2023-01-29T22:06:43.260Z,49.20
2023-01-29T22:11:45.410Z,50.30
2023-01-29T22:16:49.871Z,47.40
2023-01-29T22:21:52.375Z,50.80
2023-01-29T22:24:24.524Z,53.30
2023-01-29T22:26:56.196Z,48.20
2023-01-29T22:31:58.017Z,51.60
2023-01-29T22:36:59.895Z,72.60
2023-01-29T22:42:01.716Z,46.90
2023-01-29T22:47:03.611Z,51.60
2023-01-29T22:49:35.322Z,47.00
2023-01-29T22:54:44.474Z,49.50
2023-01-29T22:57:17.045Z,46.60
2023-01-29T22:59:48.651Z,49.40
2023-01-29T23:04:51.162Z,47.10
2023-01-29T23:07:22.816Z,48.00
2023-01-29T23:12:24.579Z,45.10
2023-01-29T23:17:26.280Z,45.10
2023-01-29T23:19:57.891Z,45.40
2023-01-29T23:25:00.294Z,45.30
2023-01-29T23:27:31.981Z,45.60
2023-01-29T23:32:34.169Z,45.10
2023-01-29T23:35:06.250Z,46.50
2023-01-29T23:37:38.002Z,45.10
2023-01-29T23:42:41.123Z,47.30
2023-01-29T23:47:43.803Z,47.70
2023-01-29T23:52:45.765Z,50.40
2023-01-29T23:57:47.651Z,51.20
